createdAt,value
2018-01-15T00:01:57.325Z,90.70
2018-01-15T00:04:25.637Z,90.70
2018-01-15T00:06:54.706Z,90.70
2018-01-15T00:09:23.004Z,90.70
2018-01-15T00:11:51.351Z,90.70
2018-01-15T00:14:19.740Z,90.80
2018-01-15T00:16:48.080Z,91.00
2018-01-15T00:19:17.151Z,90.90
2018-01-15T00:21:45.459Z,90.90
2018-01-15T00:24:14.007Z,90.80
2018-01-15T00:26:42.341Z,90.90
2018-01-15T00:29:10.667Z,90.80
2018-01-15T00:31:38.981Z,90.70
2018-01-15T00:34:08.073Z,90.50
2018-01-15T00:36:36.395Z,90.50
2018-01-15T00:39:04.695Z,90.60
2018-01-15T00:41:33.005Z,90.60
2018-01-15T00:44:01.301Z,90.70
2018-01-15T00:46:30.487Z,90.70
2018-01-15T00:48:58.829Z,90.50
2018-01-15T00:51:27.155Z,90.50
2018-01-15T00:53:56.253Z,90.40
2018-01-15T00:56:24.565Z,90.30
2018-01-15T00:58:53.645Z,90.30
2018-01-15T01:01:21.976Z,90.40
2018-01-15T01:03:50.275Z,90.40
2018-01-15T01:06:18.597Z,90.40
2018-01-15T01:08:47.672Z,90.40
2018-01-15T01:11:15.971Z,90.40
2018-01-15T01:13:45.035Z,90.50
2018-01-15T01:16:13.365Z,90.50
2018-01-15T01:18:42.553Z,90.50
2018-01-15T01:21:10.839Z,90.50
2018-01-15T01:23:39.921Z,90.40
2018-01-15T01:26:08.227Z,90.40
2018-01-15T01:28:37.291Z,90.30
2018-01-15T01:31:05.671Z,90.30
2018-01-15T01:33:33.983Z,90.30
2018-01-15T01:36:03.867Z,90.40
2018-01-15T01:38:32.202Z,90.40
2018-01-15T01:41:00.507Z,90.40
2018-01-15T01:43:28.839Z,90.70
2018-01-15T01:45:57.240Z,90.60
2018-01-15T01:48:26.369Z,90.60
2018-01-15T01:50:54.692Z,90.60
2018-01-15T01:53:22.987Z,90.50
2018-01-15T01:55:51.325Z,90.50
2018-01-15T01:58:19.625Z,90.80
2018-01-15T02:00:47.922Z,90.50
2018-01-15T02:03:16.255Z,90.40
2018-01-15T02:05:44.564Z,90.70
2018-01-15T02:08:12.887Z,90.80
2018-01-15T02:10:41.954Z,90.80
2018-01-15T02:13:10.263Z,90.70
2018-01-15T02:15:39.353Z,91.00
2018-01-15T02:18:08.443Z,90.90
2018-01-15T02:20:36.769Z,90.90
2018-01-15T02:23:05.155Z,90.80
2018-01-15T02:25:33.487Z,90.90
2018-01-15T02:28:01.811Z,90.90
2018-01-15T02:30:30.125Z,90.80
2018-01-15T02:32:58.443Z,90.90
2018-01-15T02:35:27.535Z,91.20
2018-01-15T02:37:55.871Z,90.80
2018-01-15T02:40:24.184Z,90.80
2018-01-15T02:42:52.494Z,90.80
2018-01-15T02:45:20.799Z,90.80
2018-01-15T02:47:49.151Z,90.80
2018-01-15T02:50:18.227Z,90.70
2018-01-15T02:52:46.559Z,91.10
2018-01-15T02:55:14.862Z,90.80
2018-01-15T02:57:43.166Z,90.70
2018-01-15T03:00:11.478Z,90.70
2018-01-15T03:02:39.778Z,90.70
2018-01-15T03:05:08.844Z,90.60
2018-01-15T03:07:37.168Z,90.60
2018-01-15T03:10:05.499Z,90.70
2018-01-15T03:12:33.802Z,90.80
2018-01-15T03:15:02.114Z,90.70
2018-01-15T03:17:30.491Z,90.70
2018-01-15T03:19:58.806Z,90.60
2018-01-15T03:22:27.170Z,90.60
2018-01-15T03:24:55.488Z,90.60
2018-01-15T03:27:23.830Z,90.60
2018-01-15T03:29:52.160Z,90.70
2018-01-15T03:32:20.483Z,90.70
2018-01-15T03:34:48.800Z,90.70
2018-01-15T03:37:17.116Z,90.70
2018-01-15T03:39:45.411Z,90.80
2018-01-15T03:42:14.531Z,90.60
2018-01-15T03:44:42.842Z,90.60
2018-01-15T03:47:11.164Z,90.60
2018-01-15T03:49:39.484Z,90.80
2018-01-15T03:52:07.796Z,90.90
2018-01-15T03:54:36.098Z,90.80
2018-01-15T03:57:04.427Z,90.90
2018-01-15T03:59:32.736Z,91.10
2018-01-15T04:02:01.036Z,90.90
2018-01-15T04:04:30.154Z,91.10
2018-01-15T04:06:58.481Z,91.10
2018-01-15T04:09:26.804Z,91.20
2018-01-15T04:11:55.112Z,91.10
2018-01-15T04:14:24.180Z,91.20
2018-01-15T04:16:52.495Z,91.10
2018-01-15T04:19:21.895Z,91.00
2018-01-15T04:21:50.984Z,91.00
2018-01-15T04:24:19.280Z,91.00
2018-01-15T04:26:48.422Z,91.40
2018-01-15T04:29:17.388Z,91.40
2018-01-15T04:31:46.496Z,91.50
2018-01-15T04:34:14.808Z,91.50
2018-01-15T04:36:43.139Z,91.40
2018-01-15T04:39:11.451Z,91.40
2018-01-15T04:41:39.760Z,91.20
2018-01-15T04:44:08.069Z,91.50
2018-01-15T04:46:36.390Z,91.50
2018-01-15T04:49:04.706Z,91.40
2018-01-15T04:51:33.010Z,91.30
2018-01-15T04:54:02.161Z,91.70
2018-01-15T04:56:30.478Z,91.40
2018-01-15T04:58:58.773Z,91.30
2018-01-15T05:01:27.298Z,91.30
2018-01-15T05:03:56.370Z,91.30
2018-01-15T05:06:24.712Z,91.30
2018-01-15T05:08:53.005Z,91.30
2018-01-15T05:11:21.307Z,91.40
2018-01-15T05:13:49.634Z,91.30
2018-01-15T05:16:17.928Z,91.40
2018-01-15T05:18:46.247Z,91.50
2018-01-15T05:21:14.588Z,91.40
2018-01-15T05:23:42.877Z,91.40
2018-01-15T05:26:11.186Z,91.30
2018-01-15T05:28:39.491Z,91.30
2018-01-15T05:31:07.797Z,91.40
2018-01-15T05:33:36.095Z,91.40
2018-01-15T05:36:04.419Z,91.40
2018-01-15T05:38:32.711Z,91.30
2018-01-15T05:41:01.788Z,91.40
2018-01-15T05:43:30.112Z,91.30
2018-01-15T05:45:59.165Z,91.30
2018-01-15T05:48:27.477Z,91.30
2018-01-15T05:50:55.795Z,91.30
2018-01-15T05:53:24.097Z,91.80
2018-01-15T05:55:52.388Z,91.70
2018-01-15T05:58:20.682Z,91.40
2018-01-15T06:00:48.995Z,91.50
2018-01-15T06:03:18.716Z,91.60
2018-01-15T06:05:47.788Z,91.60
2018-01-15T06:08:16.090Z,91.60
2018-01-15T06:10:45.183Z,92.40
2018-01-15T06:13:14.250Z,92.20
2018-01-15T06:15:42.567Z,92.20
2018-01-15T06:18:11.654Z,91.90
2018-01-15T06:20:39.966Z,91.90
2018-01-15T06:23:08.273Z,91.80
2018-01-15T06:25:36.590Z,91.80
2018-01-15T06:28:04.947Z,91.70
2018-01-15T06:30:33.276Z,91.70
2018-01-15T06:33:02.337Z,91.70
2018-01-15T06:35:30.692Z,91.70
2018-01-15T06:37:59.016Z,91.80
2018-01-15T06:40:27.327Z,91.90
2018-01-15T06:42:56.398Z,92.10
2018-01-15T06:45:24.720Z,92.10
2018-01-15T06:47:53.065Z,92.20
2018-01-15T06:50:21.388Z,92.20
2018-01-15T06:52:49.700Z,92.30
2018-01-15T06:55:18.000Z,92.40
2018-01-15T06:57:46.326Z,92.50
2018-01-15T07:00:14.634Z,92.60
2018-01-15T07:02:42.964Z,92.70
2018-01-15T07:05:11.284Z,92.70
2018-01-15T07:07:39.596Z,92.70
2018-01-15T07:10:07.899Z,92.90
2018-01-15T07:12:36.222Z,93.00
2018-01-15T07:15:04.576Z,93.30
2018-01-15T07:17:32.852Z,93.30
2018-01-15T07:20:01.164Z,93.40
2018-01-15T07:22:29.466Z,93.40
2018-01-15T07:24:57.776Z,93.60
2018-01-15T07:27:26.084Z,93.60
2018-01-15T07:29:55.638Z,94.20
2018-01-15T07:32:23.940Z,93.90
2018-01-15T07:34:52.236Z,94.00
2018-01-15T07:37:20.554Z,94.10
2018-01-15T07:39:49.620Z,94.00
2018-01-15T07:42:17.948Z,94.10
2018-01-15T07:44:46.262Z,94.00
2018-01-15T07:47:14.566Z,94.10
2018-01-15T07:49:42.870Z,94.10
2018-01-15T07:52:11.972Z,94.20
2018-01-15T07:54:41.030Z,94.10
2018-01-15T07:57:09.375Z,94.00
2018-01-15T07:59:37.678Z,94.00
2018-01-15T08:02:06.000Z,93.80
2018-01-15T08:04:35.106Z,94.30
2018-01-15T08:07:03.419Z,94.00
2018-01-15T08:09:31.701Z,94.00
2018-01-15T08:11:59.998Z,93.80
2018-01-15T08:14:28.326Z,93.90
2018-01-15T08:16:56.654Z,93.90
2018-01-15T08:19:25.748Z,93.90
2018-01-15T08:21:54.068Z,94.00
2018-01-15T08:24:22.370Z,93.90
2018-01-15T08:26:50.691Z,94.00
2018-01-15T08:29:19.000Z,93.90
2018-01-15T08:31:47.330Z,93.90
2018-01-15T08:34:16.486Z,93.90
2018-01-15T08:36:44.791Z,93.80
2018-01-15T08:39:13.078Z,93.80
2018-01-15T08:41:41.400Z,93.70
2018-01-15T08:44:09.702Z,93.80
2018-01-15T08:46:38.784Z,93.80
2018-01-15T08:49:07.284Z,93.70
2018-01-15T08:51:35.604Z,93.70
2018-01-15T08:54:03.940Z,93.70
2018-01-15T08:56:32.267Z,93.70
2018-01-15T08:59:00.568Z,93.70
2018-01-15T09:01:29.638Z,93.50
2018-01-15T09:03:57.942Z,93.50
2018-01-15T09:06:27.024Z,93.80
2018-01-15T09:08:55.346Z,93.50
2018-01-15T09:11:23.665Z,93.60
2018-01-15T09:13:52.049Z,93.60
2018-01-15T09:16:20.377Z,93.60
2018-01-15T09:18:49.491Z,93.50
2018-01-15T09:21:17.806Z,93.40
2018-01-15T09:23:46.088Z,93.50
2018-01-15T09:26:14.402Z,93.30
2018-01-15T09:28:42.718Z,93.50
2018-01-15T09:31:11.080Z,93.40
2018-01-15T09:33:40.158Z,93.30
2018-01-15T09:36:08.462Z,93.30
2018-01-15T09:38:37.538Z,93.40
2018-01-15T09:41:05.850Z,93.40
2018-01-15T09:43:34.923Z,93.20
2018-01-15T09:46:03.236Z,93.30
2018-01-15T09:48:32.306Z,93.50
2018-01-15T09:51:00.622Z,93.50
2018-01-15T09:53:28.930Z,93.80
2018-01-15T09:55:57.247Z,93.80
2018-01-15T09:58:25.568Z,93.70
2018-01-15T10:00:53.897Z,93.60
2018-01-15T10:03:22.211Z,93.80
2018-01-15T10:05:51.309Z,93.80
2018-01-15T10:08:20.371Z,94.10
2018-01-15T10:10:48.693Z,94.10
2018-01-15T10:13:17.757Z,94.30
2018-01-15T10:15:46.089Z,94.30
2018-01-15T10:18:14.388Z,94.50
2018-01-15T10:20:42.691Z,94.60
2018-01-15T10:23:11.004Z,94.90
2018-01-15T10:25:39.323Z,95.00
2018-01-15T10:28:07.695Z,95.00
2018-01-15T10:30:36.063Z,95.00
2018-01-15T10:33:05.137Z,95.20
2018-01-15T10:35:33.452Z,95.20
2018-01-15T10:38:02.543Z,95.60
2018-01-15T10:40:31.617Z,95.40
2018-01-15T10:42:59.924Z,95.40
2018-01-15T10:45:29.011Z,95.50
2018-01-15T10:47:57.329Z,95.50
2018-01-15T10:50:25.635Z,95.50
2018-01-15T10:52:53.939Z,95.40
2018-01-15T10:55:22.256Z,95.50
2018-01-15T10:57:50.706Z,95.60
2018-01-15T11:00:19.041Z,95.60
2018-01-15T11:02:47.395Z,95.60
2018-01-15T11:05:15.689Z,95.70
2018-01-15T11:07:44.752Z,96.20
2018-01-15T11:10:13.078Z,96.50
2018-01-15T11:12:41.387Z,96.20
2018-01-15T11:15:09.739Z,96.20
2018-01-15T11:17:38.048Z,96.30
2018-01-15T11:20:06.367Z,96.30
2018-01-15T11:22:34.697Z,96.30
2018-01-15T11:25:03.014Z,96.50
2018-01-15T11:27:31.350Z,96.70
2018-01-15T11:29:59.644Z,96.70
2018-01-15T11:32:27.944Z,96.80
2018-01-15T11:34:56.247Z,96.70
2018-01-15T11:37:24.542Z,96.80
2018-01-15T11:39:52.964Z,97.00
2018-01-15T11:42:21.282Z,97.00
2018-01-15T11:44:49.604Z,97.30
2018-01-15T11:47:18.680Z,97.30
2018-01-15T11:49:46.964Z,97.30
2018-01-15T11:52:15.270Z,97.50
2018-01-15T11:54:44.335Z,97.80
2018-01-15T11:57:12.651Z,97.80
2018-01-15T11:59:41.730Z,97.70
2018-01-15T12:02:10.128Z,97.70
2018-01-15T12:04:39.237Z,97.70
2018-01-15T12:07:08.405Z,97.80
2018-01-15T12:09:36.790Z,97.80
2018-01-15T12:12:05.113Z,97.90
2018-01-15T12:14:33.431Z,97.80
2018-01-15T12:17:01.757Z,97.90
2018-01-15T12:19:30.863Z,97.90
2018-01-15T12:21:59.184Z,97.90
2018-01-15T12:24:27.486Z,97.90
2018-01-15T12:26:55.788Z,98.10
2018-01-15T12:29:24.101Z,98.20
2018-01-15T12:31:52.418Z,98.60
2018-01-15T12:34:20.718Z,98.20
2018-01-15T12:36:49.038Z,98.30
2018-01-15T12:39:17.355Z,98.30
2018-01-15T12:41:45.636Z,98.40
2018-01-15T12:44:14.015Z,98.50
2018-01-15T12:46:42.985Z,98.40
2018-01-15T12:49:11.312Z,98.40
2018-01-15T12:51:39.621Z,98.50
2018-01-15T12:54:07.924Z,98.60
2018-01-15T12:56:37.000Z,98.60
2018-01-15T12:59:05.301Z,98.60
2018-01-15T13:01:34.621Z,98.80
2018-01-15T13:04:02.926Z,98.70
2018-01-15T13:06:49.033Z,98.80
2018-01-15T13:09:17.357Z,98.80
2018-01-15T13:11:46.427Z,98.90
2018-01-15T13:14:15.100Z,99.20
2018-01-15T13:16:43.440Z,99.10
2018-01-15T13:19:11.763Z,99.30
2018-01-15T13:21:40.087Z,99.20
2018-01-15T13:24:09.726Z,99.40
2018-01-15T13:26:38.033Z,99.40
2018-01-15T13:29:06.325Z,99.50
2018-01-15T13:31:34.647Z,99.50
2018-01-15T13:34:03.705Z,99.70
2018-01-15T13:36:32.014Z,99.70
2018-01-15T13:39:01.149Z,99.90
2018-01-15T13:41:29.460Z,99.80
2018-01-15T13:43:57.745Z,99.80
2018-01-15T13:46:26.035Z,99.90
2018-01-15T13:48:54.330Z,99.90
2018-01-15T13:51:22.639Z,99.90
2018-01-15T13:53:51.778Z,99.90
2018-01-15T13:56:20.064Z,99.90
2018-01-15T13:58:48.373Z,99.90
2018-01-15T14:01:16.671Z,99.90
2018-01-15T14:03:45.773Z,99.90
2018-01-15T14:06:14.859Z,99.90
2018-01-15T14:08:43.179Z,99.90
2018-01-15T14:11:11.486Z,99.90
2018-01-15T14:13:39.883Z,99.90
2018-01-15T14:16:08.193Z,99.90
2018-01-15T14:18:37.281Z,99.90
2018-01-15T14:21:05.581Z,99.90
2018-01-15T14:23:34.660Z,99.90
2018-01-15T14:26:02.971Z,99.90
2018-01-15T14:28:31.297Z,99.90
2018-01-15T14:30:59.592Z,99.90
2018-01-15T14:33:27.924Z,99.90
2018-01-15T14:35:56.233Z,99.90
2018-01-15T14:38:24.533Z,99.90
2018-01-15T14:40:52.850Z,99.90
2018-01-15T14:43:21.942Z,99.90
2018-01-15T14:45:50.313Z,99.90
2018-01-15T14:48:18.609Z,99.90
2018-01-15T14:50:47.693Z,99.90
2018-01-15T14:53:16.029Z,99.90
2018-01-15T14:55:44.365Z,99.90
2018-01-15T14:58:14.284Z,99.90
2018-01-15T15:00:42.635Z,99.90
2018-01-15T15:03:10.930Z,99.90
2018-01-15T15:05:39.345Z,99.90
2018-01-15T15:08:08.432Z,99.90
2018-01-15T15:10:36.807Z,99.90
2018-01-15T15:13:05.175Z,99.90
2018-01-15T15:15:33.468Z,99.90
2018-01-15T15:18:01.796Z,99.90
2018-01-15T15:20:30.116Z,99.90
2018-01-15T15:22:58.470Z,99.90
2018-01-15T15:25:26.781Z,99.90
2018-01-15T15:27:55.078Z,99.90
2018-01-15T15:30:23.382Z,99.90
2018-01-15T15:32:52.511Z,99.90
2018-01-15T15:35:20.805Z,99.90
2018-01-15T15:37:49.163Z,99.90
2018-01-15T15:40:17.468Z,99.90
2018-01-15T15:42:45.764Z,99.90
2018-01-15T15:45:14.048Z,99.90
2018-01-15T15:47:42.357Z,99.90
2018-01-15T15:50:10.689Z,99.90
2018-01-15T15:52:39.084Z,99.90
2018-01-15T15:55:07.413Z,99.90
2018-01-15T15:57:35.700Z,99.90
2018-01-15T16:00:04.808Z,99.90
2018-01-15T16:02:33.117Z,99.90
2018-01-15T16:05:01.431Z,99.90
2018-01-15T16:07:29.743Z,99.90
2018-01-15T16:09:58.819Z,99.90
2018-01-15T16:12:27.137Z,99.90
2018-01-15T16:14:55.442Z,99.90
2018-01-15T16:17:23.771Z,99.90
2018-01-15T16:19:52.231Z,99.90
2018-01-15T16:22:33.067Z,99.90
2018-01-15T16:25:02.985Z,99.90
2018-01-15T16:27:31.293Z,99.90
2018-01-15T16:29:59.601Z,99.90
2018-01-15T16:32:27.904Z,99.90
2018-01-15T16:34:56.984Z,99.90
2018-01-15T16:37:25.287Z,99.90
2018-01-15T16:39:54.422Z,99.90
2018-01-15T16:42:22.736Z,99.90
2018-01-15T16:44:51.104Z,99.90
2018-01-15T16:47:19.378Z,99.90
2018-01-15T16:49:47.677Z,99.90
2018-01-15T16:52:16.028Z,99.90
2018-01-15T16:54:44.332Z,99.90
2018-01-15T16:57:12.634Z,99.90
2018-01-15T16:59:41.018Z,99.90
2018-01-15T17:02:09.291Z,99.90
2018-01-15T17:04:37.610Z,99.90
2018-01-15T17:07:06.686Z,99.90
2018-01-15T17:09:34.998Z,99.90
2018-01-15T17:12:03.313Z,99.90
2018-01-15T17:14:32.098Z,99.90
2018-01-15T17:17:01.130Z,99.90
2018-01-15T17:19:29.455Z,99.90
2018-01-15T17:21:57.753Z,99.90
2018-01-15T17:24:26.058Z,99.90
2018-01-15T17:26:54.383Z,99.90
2018-01-15T17:29:23.462Z,99.90
2018-01-15T17:31:51.760Z,99.90
2018-01-15T17:34:20.832Z,99.90
2018-01-15T17:36:49.116Z,99.90
2018-01-15T17:39:17.403Z,99.90
2018-01-15T17:41:45.742Z,99.90
2018-01-15T17:44:14.144Z,99.90
2018-01-15T17:46:42.476Z,99.90
2018-01-15T17:49:11.554Z,99.90
2018-01-15T17:51:41.261Z,99.90
2018-01-15T17:54:09.657Z,99.90
2018-01-15T17:56:37.973Z,99.90
2018-01-15T17:59:06.283Z,99.90
2018-01-15T18:01:34.622Z,99.90
2018-01-15T18:04:03.752Z,99.90
2018-01-15T18:06:32.066Z,99.90
2018-01-15T18:09:00.379Z,99.90
2018-01-15T18:11:29.451Z,99.90
2018-01-15T18:13:57.771Z,99.90
2018-01-15T18:16:26.070Z,99.90
2018-01-15T18:18:54.829Z,99.90
2018-01-15T18:21:24.713Z,99.90
2018-01-15T18:23:53.029Z,99.90
2018-01-15T18:26:22.126Z,99.90
2018-01-15T18:28:51.212Z,99.90
2018-01-15T18:31:19.529Z,99.90
2018-01-15T18:33:47.830Z,99.90
2018-01-15T18:36:16.151Z,99.90
2018-01-15T18:38:44.510Z,99.90
2018-01-15T18:41:13.600Z,99.90
2018-01-15T18:43:41.920Z,99.90
2018-01-15T18:46:11.918Z,99.90
2018-01-15T18:48:40.265Z,99.90
2018-01-15T18:51:08.856Z,99.90
2018-01-15T18:53:37.165Z,99.90
2018-01-15T18:56:05.468Z,99.90
2018-01-15T18:58:34.536Z,99.90
2018-01-15T19:01:02.861Z,99.90
2018-01-15T19:03:32.035Z,99.90
2018-01-15T19:06:00.351Z,99.90
2018-01-15T19:08:29.396Z,99.90
2018-01-15T19:10:57.723Z,99.90
2018-01-15T19:13:26.865Z,99.90
2018-01-15T19:15:55.425Z,99.90
2018-01-15T19:18:24.481Z,99.90
2018-01-15T19:20:53.168Z,99.90
2018-01-15T19:23:21.492Z,99.90
2018-01-15T19:25:50.555Z,99.90
2018-01-15T19:28:19.423Z,99.90
2018-01-15T19:30:47.871Z,99.90
2018-01-15T19:33:16.933Z,99.90
2018-01-15T19:35:45.660Z,99.90
2018-01-15T19:38:25.469Z,99.90
2018-01-15T19:40:54.765Z,99.90
2018-01-15T19:43:28.523Z,99.90
2018-01-15T19:46:02.413Z,99.90
2018-01-15T19:48:40.712Z,99.90
2018-01-15T19:51:14.718Z,99.90
2018-01-15T19:53:48.656Z,99.90
2018-01-15T19:59:24.907Z,99.90
2018-01-15T20:01:58.821Z,99.90
2018-01-15T20:04:34.194Z,99.90
2018-01-15T20:07:07.928Z,99.90
2018-01-15T20:09:41.678Z,99.90
2018-01-15T20:12:10.765Z,99.90
2018-01-15T20:14:39.125Z,99.90
2018-01-15T20:17:07.427Z,99.90
2018-01-15T20:19:35.725Z,99.90
2018-01-15T20:22:04.809Z,99.90
2018-01-15T20:24:33.188Z,99.90
2018-01-15T20:27:01.534Z,99.90
2018-01-15T20:29:30.066Z,99.90
2018-01-15T20:31:58.485Z,99.90
2018-01-15T20:34:26.796Z,99.90
2018-01-15T20:36:55.256Z,99.90
2018-01-15T20:39:23.576Z,99.90
2018-01-15T20:41:51.874Z,99.90
2018-01-15T20:44:20.152Z,99.90
2018-01-15T20:46:48.469Z,99.90
2018-01-15T20:49:16.800Z,99.90
2018-01-15T20:51:45.695Z,99.90
2018-01-15T20:54:14.007Z,99.90
2018-01-15T20:56:43.077Z,99.90
2018-01-15T20:59:11.410Z,99.90
2018-01-15T21:01:39.716Z,99.90
2018-01-15T21:04:08.026Z,99.90
2018-01-15T21:06:36.323Z,99.90
2018-01-15T21:09:04.630Z,99.90
2018-01-15T21:11:32.946Z,99.90
2018-01-15T21:14:01.240Z,99.90
2018-01-15T21:16:29.610Z,99.90
2018-01-15T21:18:58.621Z,99.90
2018-01-15T21:21:26.932Z,99.90
2018-01-15T21:23:56.589Z,99.90
2018-01-15T21:26:24.929Z,99.90
2018-01-15T21:28:54.015Z,99.90
2018-01-15T21:31:22.341Z,99.90
2018-01-15T21:33:50.693Z,99.90
2018-01-15T21:36:19.747Z,99.90
2018-01-15T21:38:48.063Z,99.90
2018-01-15T21:41:16.381Z,99.90
2018-01-15T21:43:44.661Z,99.90
2018-01-15T21:46:12.989Z,99.90
2018-01-15T21:48:41.329Z,99.90
2018-01-15T21:51:09.619Z,99.90
2018-01-15T21:53:37.911Z,99.90
2018-01-15T21:56:06.214Z,99.90
2018-01-15T21:58:34.525Z,99.90
2018-01-15T22:01:03.606Z,99.90
2018-01-15T22:03:31.926Z,99.90
2018-01-15T22:06:00.210Z,99.60
2018-01-15T22:08:28.513Z,99.90
2018-01-15T22:10:56.795Z,99.80
2018-01-15T22:13:25.087Z,99.60
2018-01-15T22:15:53.409Z,99.70
2018-01-15T22:18:22.513Z,99.90
2018-01-15T22:20:51.587Z,99.90
2018-01-15T22:23:19.883Z,99.90
2018-01-15T22:25:48.180Z,99.90
2018-01-15T22:28:17.239Z,99.90
2018-01-15T22:30:45.541Z,99.90
2018-01-15T22:33:13.840Z,99.90
2018-01-15T22:35:42.914Z,99.50
2018-01-15T22:38:11.259Z,99.50
2018-01-15T22:40:39.566Z,99.20
2018-01-15T22:43:08.645Z,99.60
2018-01-15T22:45:36.972Z,99.50
2018-01-15T22:48:05.274Z,99.30
2018-01-15T22:50:33.581Z,99.10
2018-01-15T22:53:01.867Z,98.70
2018-01-15T22:55:30.175Z,98.90
2018-01-15T22:57:59.247Z,98.70
2018-01-15T23:00:27.539Z,99.00
2018-01-15T23:02:55.830Z,98.80
2018-01-15T23:05:24.155Z,98.60
2018-01-15T23:07:53.214Z,98.60
2018-01-15T23:10:21.524Z,98.70
2018-01-15T23:12:50.597Z,98.70
2018-01-15T23:15:18.903Z,98.60
2018-01-15T23:17:47.201Z,98.30
2018-01-15T23:20:15.512Z,98.20
2018-01-15T23:22:43.805Z,97.70
2018-01-15T23:25:12.108Z,97.70
2018-01-15T23:27:40.396Z,97.60
2018-01-15T23:30:08.748Z,97.70
2018-01-15T23:32:37.042Z,97.90
2018-01-15T23:35:05.361Z,97.50
2018-01-15T23:37:34.460Z,97.20
2018-01-15T23:40:03.519Z,96.90
2018-01-15T23:42:31.855Z,96.90
2018-01-15T23:45:00.148Z,96.90
2018-01-15T23:47:28.483Z,97.00
2018-01-15T23:49:56.781Z,97.00
2018-01-15T23:52:25.864Z,96.60
2018-01-15T23:54:54.180Z,96.60
2018-01-15T23:57:22.518Z,96.80
2018-01-15T23:59:50.817Z,96.60
